sensor_id;sensor_type;location;lat;lon;timestamp;temperature;humidity
55771;DHT22;41687;-33.234;-60.334;2024-02-23T00:02:26;27.00;52.00
55771;DHT22;41687;-33.234;-60.334;2024-02-23T00:04:53;26.90;53.00
55771;DHT22;41687;-33.234;-60.334;2024-02-23T00:07:20;26.80;53.40
55771;DHT22;41687;-33.234;-60.334;2024-02-23T00:09:48;26.70;53.70
55771;DHT22;41687;-33.234;-60.334;2024-02-23T00:12:16;26.50;55.20
55771;DHT22;41687;-33.234;-60.334;2024-02-23T00:14:43;26.50;57.30
55771;DHT22;41687;-33.234;-60.334;2024-02-23T00:17:11;26.30;57.10
55771;DHT22;41687;-33.234;-60.334;2024-02-23T00:19:39;26.10;57.60
55771;DHT22;41687;-33.234;-60.334;2024-02-23T00:22:06;25.80;58.80
55771;DHT22;41687;-33.234;-60.334;2024-02-23T00:24:34;25.90;58.00
55771;DHT22;41687;-33.234;-60.334;2024-02-23T00:27:03;25.80;57.80
55771;DHT22;41687;-33.234;-60.334;2024-02-23T00:29:31;25.70;60.00
55771;DHT22;41687;-33.234;-60.334;2024-02-23T00:31:58;25.50;60.70
55771;DHT22;41687;-33.234;-60.334;2024-02-23T00:34:25;25.50;60.40
55771;DHT22;41687;-33.234;-60.334;2024-02-23T00:36:53;25.30;60.20
55771;DHT22;41687;-33.234;-60.334;2024-02-23T00:39:21;25.20;60.40
55771;DHT22;41687;-33.234;-60.334;2024-02-23T00:41:48;24.90;62.10
55771;DHT22;41687;-33.234;-60.334;2024-02-23T00:44:16;24.90;60.30
55771;DHT22;41687;-33.234;-60.334;2024-02-23T00:46:43;24.70;61.50
55771;DHT22;41687;-33.234;-60.334;2024-02-23T00:49:14;24.50;64.10
55771;DHT22;41687;-33.234;-60.334;2024-02-23T00:51:42;24.40;63.60
55771;DHT22;41687;-33.234;-60.334;2024-02-23T00:54:10;24.30;64.10
55771;DHT22;41687;-33.234;-60.334;2024-02-23T00:56:37;24.10;63.90
55771;DHT22;41687;-33.234;-60.334;2024-02-23T00:59:06;24.10;64.00
55771;DHT22;41687;-33.234;-60.334;2024-02-23T01:01:33;24.10;64.20
55771;DHT22;41687;-33.234;-60.334;2024-02-23T01:04:01;24.10;64.20
55771;DHT22;41687;-33.234;-60.334;2024-02-23T01:06:28;24.00;63.30
55771;DHT22;41687;-33.234;-60.334;2024-02-23T01:08:56;24.00;63.30
55771;DHT22;41687;-33.234;-60.334;2024-02-23T01:11:24;23.90;63.40
55771;DHT22;41687;-33.234;-60.334;2024-02-23T01:13:51;23.80;63.20
55771;DHT22;41687;-33.234;-60.334;2024-02-23T01:16:19;23.80;63.40
55771;DHT22;41687;-33.234;-60.334;2024-02-23T01:18:47;23.90;63.00
55771;DHT22;41687;-33.234;-60.334;2024-02-23T01:21:14;23.90;62.40
55771;DHT22;41687;-33.234;-60.334;2024-02-23T01:23:43;23.90;62.40
55771;DHT22;41687;-33.234;-60.334;2024-02-23T01:26:10;23.90;62.70
55771;DHT22;41687;-33.234;-60.334;2024-02-23T01:28:38;23.80;63.00
55771;DHT22;41687;-33.234;-60.334;2024-02-23T01:31:07;23.80;63.70
55771;DHT22;41687;-33.234;-60.334;2024-02-23T01:33:38;23.80;63.50
55771;DHT22;41687;-33.234;-60.334;2024-02-23T01:36:06;23.70;65.30
55771;DHT22;41687;-33.234;-60.334;2024-02-23T01:38:34;23.70;65.70
55771;DHT22;41687;-33.234;-60.334;2024-02-23T01:41:02;23.60;67.40
55771;DHT22;41687;-33.234;-60.334;2024-02-23T01:43:30;23.50;68.40
55771;DHT22;41687;-33.234;-60.334;2024-02-23T01:45:57;23.60;68.20
55771;DHT22;41687;-33.234;-60.334;2024-02-23T01:48:25;23.40;69.20
55771;DHT22;41687;-33.234;-60.334;2024-02-23T01:50:54;23.40;69.60
55771;DHT22;41687;-33.234;-60.334;2024-02-23T01:53:23;23.40;70.60
55771;DHT22;41687;-33.234;-60.334;2024-02-23T01:55:53;23.20;72.20
55771;DHT22;41687;-33.234;-60.334;2024-02-23T01:58:21;23.20;74.40
55771;DHT22;41687;-33.234;-60.334;2024-02-23T02:00:49;23.20;72.20
55771;DHT22;41687;-33.234;-60.334;2024-02-23T02:03:17;23.20;72.50
55771;DHT22;41687;-33.234;-60.334;2024-02-23T02:05:45;23.10;73.50
55771;DHT22;41687;-33.234;-60.334;2024-02-23T02:08:13;23.10;72.80
55771;DHT22;41687;-33.234;-60.334;2024-02-23T02:10:41;23.00;72.80
55771;DHT22;41687;-33.234;-60.334;2024-02-23T02:13:10;23.10;72.70
55771;DHT22;41687;-33.234;-60.334;2024-02-23T02:15:38;23.10;72.70
55771;DHT22;41687;-33.234;-60.334;2024-02-23T02:18:05;23.10;72.80
55771;DHT22;41687;-33.234;-60.334;2024-02-23T02:20:33;23.00;71.40
55771;DHT22;41687;-33.234;-60.334;2024-02-23T02:23:03;23.00;71.10
55771;DHT22;41687;-33.234;-60.334;2024-02-23T02:25:31;23.00;71.20
55771;DHT22;41687;-33.234;-60.334;2024-02-23T02:27:58;22.90;71.20
55771;DHT22;41687;-33.234;-60.334;2024-02-23T02:30:26;23.00;69.60
55771;DHT22;41687;-33.234;-60.334;2024-02-23T02:32:54;23.10;70.00
55771;DHT22;41687;-33.234;-60.334;2024-02-23T02:35:21;22.90;70.30
55771;DHT22;41687;-33.234;-60.334;2024-02-23T02:37:49;22.90;68.70
55771;DHT22;41687;-33.234;-60.334;2024-02-23T02:40:18;22.90;68.50
55771;DHT22;41687;-33.234;-60.334;2024-02-23T02:42:45;22.90;68.30
55771;DHT22;41687;-33.234;-60.334;2024-02-23T02:45:13;22.90;68.20
55771;DHT22;41687;-33.234;-60.334;2024-02-23T02:47:43;22.70;68.50
55771;DHT22;41687;-33.234;-60.334;2024-02-23T02:50:11;22.80;68.50
55771;DHT22;41687;-33.234;-60.334;2024-02-23T02:52:39;22.60;69.50
55771;DHT22;41687;-33.234;-60.334;2024-02-23T02:55:07;22.60;69.80
55771;DHT22;41687;-33.234;-60.334;2024-02-23T02:57:35;22.50;70.80
55771;DHT22;41687;-33.234;-60.334;2024-02-23T03:00:09;22.50;71.20
55771;DHT22;41687;-33.234;-60.334;2024-02-23T03:02:37;22.40;70.50
55771;DHT22;41687;-33.234;-60.334;2024-02-23T03:05:05;22.40;69.70
55771;DHT22;41687;-33.234;-60.334;2024-02-23T03:07:33;22.50;69.90
55771;DHT22;41687;-33.234;-60.334;2024-02-23T03:10:00;22.40;70.10
55771;DHT22;41687;-33.234;-60.334;2024-02-23T03:12:28;22.60;69.80
55771;DHT22;41687;-33.234;-60.334;2024-02-23T03:14:55;22.50;70.60
55771;DHT22;41687;-33.234;-60.334;2024-02-23T03:17:23;22.30;71.60
55771;DHT22;41687;-33.234;-60.334;2024-02-23T03:19:51;22.30;71.70
55771;DHT22;41687;-33.234;-60.334;2024-02-23T03:22:18;22.30;71.20
55771;DHT22;41687;-33.234;-60.334;2024-02-23T03:24:46;22.40;70.80
55771;DHT22;41687;-33.234;-60.334;2024-02-23T03:27:13;22.40;70.80
55771;DHT22;41687;-33.234;-60.334;2024-02-23T03:29:41;22.40;69.30
55771;DHT22;41687;-33.234;-60.334;2024-02-23T03:32:09;22.50;69.30
55771;DHT22;41687;-33.234;-60.334;2024-02-23T03:34:36;22.40;69.50
55771;DHT22;41687;-33.234;-60.334;2024-02-23T03:37:04;22.30;70.20
55771;DHT22;41687;-33.234;-60.334;2024-02-23T03:39:31;22.10;72.10
55771;DHT22;41687;-33.234;-60.334;2024-02-23T03:42:00;22.00;72.30
55771;DHT22;41687;-33.234;-60.334;2024-02-23T03:44:27;22.10;71.70
55771;DHT22;41687;-33.234;-60.334;2024-02-23T03:46:55;22.10;71.30
55771;DHT22;41687;-33.234;-60.334;2024-02-23T03:49:22;22.00;72.80
55771;DHT22;41687;-33.234;-60.334;2024-02-23T03:51:50;22.10;71.40
55771;DHT22;41687;-33.234;-60.334;2024-02-23T03:54:18;22.10;72.10
55771;DHT22;41687;-33.234;-60.334;2024-02-23T03:56:45;22.10;72.60
55771;DHT22;41687;-33.234;-60.334;2024-02-23T03:59:13;22.10;71.30
55771;DHT22;41687;-33.234;-60.334;2024-02-23T04:01:41;22.10;72.20
55771;DHT22;41687;-33.234;-60.334;2024-02-23T04:04:08;22.00;71.60
55771;DHT22;41687;-33.234;-60.334;2024-02-23T04:06:36;22.10;71.20
55771;DHT22;41687;-33.234;-60.334;2024-02-23T04:09:05;21.90;73.00
55771;DHT22;41687;-33.234;-60.334;2024-02-23T04:11:33;21.90;72.90
55771;DHT22;41687;-33.234;-60.334;2024-02-23T04:14:01;21.90;71.70
55771;DHT22;41687;-33.234;-60.334;2024-02-23T04:16:29;21.90;72.60
55771;DHT22;41687;-33.234;-60.334;2024-02-23T04:18:56;21.90;72.60
55771;DHT22;41687;-33.234;-60.334;2024-02-23T04:21:24;21.80;73.20
55771;DHT22;41687;-33.234;-60.334;2024-02-23T04:23:52;21.80;73.10
55771;DHT22;41687;-33.234;-60.334;2024-02-23T04:26:20;21.80;72.70
55771;DHT22;41687;-33.234;-60.334;2024-02-23T04:28:47;21.80;72.80
55771;DHT22;41687;-33.234;-60.334;2024-02-23T04:31:15;21.80;73.00
55771;DHT22;41687;-33.234;-60.334;2024-02-23T04:33:42;21.90;72.00
55771;DHT22;41687;-33.234;-60.334;2024-02-23T04:36:10;21.90;72.50
55771;DHT22;41687;-33.234;-60.334;2024-02-23T04:38:37;21.90;72.10
55771;DHT22;41687;-33.234;-60.334;2024-02-23T04:41:05;21.70;73.00
55771;DHT22;41687;-33.234;-60.334;2024-02-23T04:43:33;21.70;73.20
55771;DHT22;41687;-33.234;-60.334;2024-02-23T04:46:01;21.80;72.90
55771;DHT22;41687;-33.234;-60.334;2024-02-23T04:48:29;21.80;73.00
55771;DHT22;41687;-33.234;-60.334;2024-02-23T04:50:58;21.80;73.10
55771;DHT22;41687;-33.234;-60.334;2024-02-23T04:53:25;21.90;72.90
55771;DHT22;41687;-33.234;-60.334;2024-02-23T04:55:54;21.80;73.30
55771;DHT22;41687;-33.234;-60.334;2024-02-23T04:58:21;21.70;74.00
55771;DHT22;41687;-33.234;-60.334;2024-02-23T05:00:49;21.70;73.10
55771;DHT22;41687;-33.234;-60.334;2024-02-23T05:03:16;21.70;72.90
55771;DHT22;41687;-33.234;-60.334;2024-02-23T05:05:44;21.80;73.00
55771;DHT22;41687;-33.234;-60.334;2024-02-23T05:08:11;21.80;73.00
55771;DHT22;41687;-33.234;-60.334;2024-02-23T05:10:39;21.70;73.60
55771;DHT22;41687;-33.234;-60.334;2024-02-23T05:13:06;21.70;73.50
55771;DHT22;41687;-33.234;-60.334;2024-02-23T05:15:34;21.70;73.80
55771;DHT22;41687;-33.234;-60.334;2024-02-23T05:18:01;21.70;73.80
55771;DHT22;41687;-33.234;-60.334;2024-02-23T05:20:29;21.70;73.70
55771;DHT22;41687;-33.234;-60.334;2024-02-23T05:22:57;21.70;73.70
55771;DHT22;41687;-33.234;-60.334;2024-02-23T05:25:24;21.70;73.40
55771;DHT22;41687;-33.234;-60.334;2024-02-23T05:27:55;21.70;73.60
55771;DHT22;41687;-33.234;-60.334;2024-02-23T05:30:23;21.70;73.50
55771;DHT22;41687;-33.234;-60.334;2024-02-23T05:32:50;21.70;73.90
55771;DHT22;41687;-33.234;-60.334;2024-02-23T05:35:18;21.70;73.30
55771;DHT22;41687;-33.234;-60.334;2024-02-23T05:37:46;21.70;73.90
55771;DHT22;41687;-33.234;-60.334;2024-02-23T05:40:13;21.80;73.60
55771;DHT22;41687;-33.234;-60.334;2024-02-23T05:42:42;21.80;73.70
55771;DHT22;41687;-33.234;-60.334;2024-02-23T05:45:09;21.70;73.90
55771;DHT22;41687;-33.234;-60.334;2024-02-23T05:47:40;21.80;73.50
55771;DHT22;41687;-33.234;-60.334;2024-02-23T05:50:08;21.70;73.90
55771;DHT22;41687;-33.234;-60.334;2024-02-23T05:52:36;21.70;74.20
55771;DHT22;41687;-33.234;-60.334;2024-02-23T05:55:04;21.70;74.00
55771;DHT22;41687;-33.234;-60.334;2024-02-23T05:57:32;21.80;73.60
55771;DHT22;41687;-33.234;-60.334;2024-02-23T06:00:00;21.90;73.50
55771;DHT22;41687;-33.234;-60.334;2024-02-23T06:02:38;21.90;73.60
55771;DHT22;41687;-33.234;-60.334;2024-02-23T06:05:06;21.90;73.80
55771;DHT22;41687;-33.234;-60.334;2024-02-23T06:07:34;21.90;73.60
55771;DHT22;41687;-33.234;-60.334;2024-02-23T06:10:03;21.90;73.30
55771;DHT22;41687;-33.234;-60.334;2024-02-23T06:12:31;21.90;73.60
55771;DHT22;41687;-33.234;-60.334;2024-02-23T06:14:59;21.90;73.40
55771;DHT22;41687;-33.234;-60.334;2024-02-23T06:17:27;22.00;73.60
55771;DHT22;41687;-33.234;-60.334;2024-02-23T06:19:54;22.00;73.40
55771;DHT22;41687;-33.234;-60.334;2024-02-23T06:22:24;22.00;73.20
55771;DHT22;41687;-33.234;-60.334;2024-02-23T06:24:53;22.10;73.20
55771;DHT22;41687;-33.234;-60.334;2024-02-23T06:27:20;22.10;73.00
55771;DHT22;41687;-33.234;-60.334;2024-02-23T06:29:48;22.10;73.10
55771;DHT22;41687;-33.234;-60.334;2024-02-23T06:32:16;22.00;73.30
55771;DHT22;41687;-33.234;-60.334;2024-02-23T06:34:45;22.00;73.40
55771;DHT22;41687;-33.234;-60.334;2024-02-23T06:37:13;22.00;73.50
55771;DHT22;41687;-33.234;-60.334;2024-02-23T06:39:40;22.00;73.30
55771;DHT22;41687;-33.234;-60.334;2024-02-23T06:42:08;22.10;73.40
55771;DHT22;41687;-33.234;-60.334;2024-02-23T06:44:36;22.10;73.40
55771;DHT22;41687;-33.234;-60.334;2024-02-23T06:47:03;22.10;73.20
55771;DHT22;41687;-33.234;-60.334;2024-02-23T06:49:31;22.10;73.20
55771;DHT22;41687;-33.234;-60.334;2024-02-23T06:51:58;22.00;73.40
55771;DHT22;41687;-33.234;-60.334;2024-02-23T06:54:26;22.00;73.60
55771;DHT22;41687;-33.234;-60.334;2024-02-23T06:56:53;22.00;73.80
55771;DHT22;41687;-33.234;-60.334;2024-02-23T06:59:21;22.00;74.00
55771;DHT22;41687;-33.234;-60.334;2024-02-23T07:01:51;22.00;74.00
55771;DHT22;41687;-33.234;-60.334;2024-02-23T07:04:19;22.00;73.80
55771;DHT22;41687;-33.234;-60.334;2024-02-23T07:06:46;22.10;73.90
55771;DHT22;41687;-33.234;-60.334;2024-02-23T07:09:14;22.00;73.90
55771;DHT22;41687;-33.234;-60.334;2024-02-23T07:11:41;22.10;74.00
55771;DHT22;41687;-33.234;-60.334;2024-02-23T07:14:10;22.10;74.00
55771;DHT22;41687;-33.234;-60.334;2024-02-23T07:16:41;22.10;73.90
55771;DHT22;41687;-33.234;-60.334;2024-02-23T07:19:09;22.00;74.40
55771;DHT22;41687;-33.234;-60.334;2024-02-23T07:21:37;22.00;74.50
55771;DHT22;41687;-33.234;-60.334;2024-02-23T07:24:04;22.00;74.60
55771;DHT22;41687;-33.234;-60.334;2024-02-23T07:26:32;22.00;74.60
55771;DHT22;41687;-33.234;-60.334;2024-02-23T07:29:00;22.00;74.50
55771;DHT22;41687;-33.234;-60.334;2024-02-23T07:31:28;22.10;74.20
55771;DHT22;41687;-33.234;-60.334;2024-02-23T07:33:55;22.00;74.50
55771;DHT22;41687;-33.234;-60.334;2024-02-23T07:36:23;22.00;74.70
55771;DHT22;41687;-33.234;-60.334;2024-02-23T07:38:50;22.00;74.70
55771;DHT22;41687;-33.234;-60.334;2024-02-23T07:41:19;21.90;75.20
55771;DHT22;41687;-33.234;-60.334;2024-02-23T07:43:46;22.00;75.00
55771;DHT22;41687;-33.234;-60.334;2024-02-23T07:46:13;22.00;74.80
55771;DHT22;41687;-33.234;-60.334;2024-02-23T07:48:44;21.90;75.10
55771;DHT22;41687;-33.234;-60.334;2024-02-23T07:51:11;22.00;75.00
55771;DHT22;41687;-33.234;-60.334;2024-02-23T07:53:39;22.00;75.00
55771;DHT22;41687;-33.234;-60.334;2024-02-23T07:56:08;22.00;75.00
55771;DHT22;41687;-33.234;-60.334;2024-02-23T07:58:36;22.00;74.90
55771;DHT22;41687;-33.234;-60.334;2024-02-23T08:01:03;21.90;75.10
55771;DHT22;41687;-33.234;-60.334;2024-02-23T08:03:31;21.90;75.50
55771;DHT22;41687;-33.234;-60.334;2024-02-23T08:05:58;21.90;75.30
55771;DHT22;41687;-33.234;-60.334;2024-02-23T08:08:26;21.90;76.40
55771;DHT22;41687;-33.234;-60.334;2024-02-23T08:10:54;21.90;77.10
55771;DHT22;41687;-33.234;-60.334;2024-02-23T08:13:22;21.80;78.30
55771;DHT22;41687;-33.234;-60.334;2024-02-23T08:15:49;21.80;79.30
55771;DHT22;41687;-33.234;-60.334;2024-02-23T08:18:17;21.80;80.00
55771;DHT22;41687;-33.234;-60.334;2024-02-23T08:20:44;21.80;80.50
55771;DHT22;41687;-33.234;-60.334;2024-02-23T08:23:12;21.80;81.50
55771;DHT22;41687;-33.234;-60.334;2024-02-23T08:25:40;21.70;82.40
55771;DHT22;41687;-33.234;-60.334;2024-02-23T08:28:08;21.70;83.20
55771;DHT22;41687;-33.234;-60.334;2024-02-23T08:30:35;21.70;83.20
55771;DHT22;41687;-33.234;-60.334;2024-02-23T08:33:03;21.70;82.70
55771;DHT22;41687;-33.234;-60.334;2024-02-23T08:35:30;21.80;83.30
55771;DHT22;41687;-33.234;-60.334;2024-02-23T08:37:57;21.70;82.90
55771;DHT22;41687;-33.234;-60.334;2024-02-23T08:40:25;21.70;83.20
55771;DHT22;41687;-33.234;-60.334;2024-02-23T08:42:53;21.70;82.60
55771;DHT22;41687;-33.234;-60.334;2024-02-23T08:45:20;21.70;82.90
55771;DHT22;41687;-33.234;-60.334;2024-02-23T08:47:48;21.60;84.10
55771;DHT22;41687;-33.234;-60.334;2024-02-23T08:50:16;21.60;83.80
55771;DHT22;41687;-33.234;-60.334;2024-02-23T08:52:44;21.50;84.80
55771;DHT22;41687;-33.234;-60.334;2024-02-23T08:55:11;21.40;85.20
55771;DHT22;41687;-33.234;-60.334;2024-02-23T08:57:39;21.40;85.30
55771;DHT22;41687;-33.234;-60.334;2024-02-23T09:00:07;21.40;85.50
55771;DHT22;41687;-33.234;-60.334;2024-02-23T09:02:35;21.40;85.80
55771;DHT22;41687;-33.234;-60.334;2024-02-23T09:05:05;21.40;86.10
55771;DHT22;41687;-33.234;-60.334;2024-02-23T09:07:33;21.40;86.40
55771;DHT22;41687;-33.234;-60.334;2024-02-23T09:10:00;21.30;86.90
55771;DHT22;41687;-33.234;-60.334;2024-02-23T09:12:28;21.40;84.90
55771;DHT22;41687;-33.234;-60.334;2024-02-23T09:14:55;21.30;86.70
55771;DHT22;41687;-33.234;-60.334;2024-02-23T09:17:23;21.20;87.00
55771;DHT22;41687;-33.234;-60.334;2024-02-23T09:19:52;21.30;87.00
55771;DHT22;41687;-33.234;-60.334;2024-02-23T09:22:20;21.20;87.50
55771;DHT22;41687;-33.234;-60.334;2024-02-23T09:24:47;21.30;88.10
55771;DHT22;41687;-33.234;-60.334;2024-02-23T09:27:14;21.30;87.60
55771;DHT22;41687;-33.234;-60.334;2024-02-23T09:29:42;21.30;87.60
55771;DHT22;41687;-33.234;-60.334;2024-02-23T09:32:09;21.20;88.80
55771;DHT22;41687;-33.234;-60.334;2024-02-23T09:34:36;21.30;88.70
55771;DHT22;41687;-33.234;-60.334;2024-02-23T09:37:04;21.20;89.40
55771;DHT22;41687;-33.234;-60.334;2024-02-23T09:39:32;21.20;89.80
55771;DHT22;41687;-33.234;-60.334;2024-02-23T09:42:00;21.20;90.10
55771;DHT22;41687;-33.234;-60.334;2024-02-23T09:44:32;21.10;89.70
55771;DHT22;41687;-33.234;-60.334;2024-02-23T09:47:05;21.00;90.10
55771;DHT22;41687;-33.234;-60.334;2024-02-23T09:49:40;21.10;90.10
55771;DHT22;41687;-33.234;-60.334;2024-02-23T09:52:09;21.10;90.20
55771;DHT22;41687;-33.234;-60.334;2024-02-23T09:54:39;21.10;90.60
55771;DHT22;41687;-33.234;-60.334;2024-02-23T09:57:08;21.00;90.40
55771;DHT22;41687;-33.234;-60.334;2024-02-23T09:59:36;20.90;90.60
55771;DHT22;41687;-33.234;-60.334;2024-02-23T10:02:08;21.00;90.20
55771;DHT22;41687;-33.234;-60.334;2024-02-23T10:04:39;20.90;89.60
55771;DHT22;41687;-33.234;-60.334;2024-02-23T10:07:07;20.90;90.60
55771;DHT22;41687;-33.234;-60.334;2024-02-23T10:09:36;20.80;90.40
55771;DHT22;41687;-33.234;-60.334;2024-02-23T10:12:03;20.80;90.30
55771;DHT22;41687;-33.234;-60.334;2024-02-23T10:14:31;20.80;91.00
55771;DHT22;41687;-33.234;-60.334;2024-02-23T10:16:58;20.80;91.00
55771;DHT22;41687;-33.234;-60.334;2024-02-23T10:19:26;20.80;91.30
55771;DHT22;41687;-33.234;-60.334;2024-02-23T10:21:55;20.90;91.30
55771;DHT22;41687;-33.234;-60.334;2024-02-23T10:24:23;20.80;91.80
55771;DHT22;41687;-33.234;-60.334;2024-02-23T10:26:55;20.80;91.60
55771;DHT22;41687;-33.234;-60.334;2024-02-23T10:29:23;20.80;91.80
55771;DHT22;41687;-33.234;-60.334;2024-02-23T10:31:52;20.90;91.60
55771;DHT22;41687;-33.234;-60.334;2024-02-23T10:34:20;20.90;91.70
55771;DHT22;41687;-33.234;-60.334;2024-02-23T10:36:48;20.90;91.30
55771;DHT22;41687;-33.234;-60.334;2024-02-23T10:39:18;20.90;91.50
55771;DHT22;41687;-33.234;-60.334;2024-02-23T10:42:07;20.90;91.60
55771;DHT22;41687;-33.234;-60.334;2024-02-23T10:44:37;21.00;92.00
55771;DHT22;41687;-33.234;-60.334;2024-02-23T10:47:05;21.00;91.20
55771;DHT22;41687;-33.234;-60.334;2024-02-23T10:49:35;21.00;90.90
55771;DHT22;41687;-33.234;-60.334;2024-02-23T10:52:04;21.00;90.90
55771;DHT22;41687;-33.234;-60.334;2024-02-23T10:54:33;21.00;91.20
55771;DHT22;41687;-33.234;-60.334;2024-02-23T10:57:02;21.00;91.20
55771;DHT22;41687;-33.234;-60.334;2024-02-23T10:59:31;21.00;91.20
55771;DHT22;41687;-33.234;-60.334;2024-02-23T11:02:00;21.00;90.80
55771;DHT22;41687;-33.234;-60.334;2024-02-23T11:04:28;21.00;90.70
55771;DHT22;41687;-33.234;-60.334;2024-02-23T11:06:56;21.00;91.10
55771;DHT22;41687;-33.234;-60.334;2024-02-23T11:09:25;21.00;91.30
55771;DHT22;41687;-33.234;-60.334;2024-02-23T11:11:54;21.00;91.00
55771;DHT22;41687;-33.234;-60.334;2024-02-23T11:14:35;21.00;91.10
55771;DHT22;41687;-33.234;-60.334;2024-02-23T11:17:04;21.10;91.00
55771;DHT22;41687;-33.234;-60.334;2024-02-23T11:19:40;21.10;90.70
55771;DHT22;41687;-33.234;-60.334;2024-02-23T11:22:11;21.10;90.60
55771;DHT22;41687;-33.234;-60.334;2024-02-23T11:24:43;21.10;90.70
55771;DHT22;41687;-33.234;-60.334;2024-02-23T11:27:16;21.10;90.70
55771;DHT22;41687;-33.234;-60.334;2024-02-23T11:29:47;21.20;90.80
55771;DHT22;41687;-33.234;-60.334;2024-02-23T11:32:18;21.10;90.90
55771;DHT22;41687;-33.234;-60.334;2024-02-23T11:34:57;21.20;91.20
55771;DHT22;41687;-33.234;-60.334;2024-02-23T11:37:29;21.10;91.40
55771;DHT22;41687;-33.234;-60.334;2024-02-23T11:40:01;21.20;90.70
55771;DHT22;41687;-33.234;-60.334;2024-02-23T11:42:31;21.20;91.40
55771;DHT22;41687;-33.234;-60.334;2024-02-23T11:45:00;21.20;91.60
55771;DHT22;41687;-33.234;-60.334;2024-02-23T11:47:28;21.20;91.50
55771;DHT22;41687;-33.234;-60.334;2024-02-23T11:49:57;21.20;91.50
55771;DHT22;41687;-33.234;-60.334;2024-02-23T11:52:25;21.20;91.30
55771;DHT22;41687;-33.234;-60.334;2024-02-23T11:54:53;21.20;91.90
55771;DHT22;41687;-33.234;-60.334;2024-02-23T11:57:20;21.20;92.00
55771;DHT22;41687;-33.234;-60.334;2024-02-23T11:59:50;21.20;92.10
55771;DHT22;41687;-33.234;-60.334;2024-02-23T12:02:18;21.20;91.90
55771;DHT22;41687;-33.234;-60.334;2024-02-23T12:04:45;21.20;92.20
55771;DHT22;41687;-33.234;-60.334;2024-02-23T12:07:13;21.20;92.40
55771;DHT22;41687;-33.234;-60.334;2024-02-23T12:09:40;21.20;92.50
55771;DHT22;41687;-33.234;-60.334;2024-02-23T12:12:08;21.20;92.80
55771;DHT22;41687;-33.234;-60.334;2024-02-23T12:14:36;21.20;93.00
55771;DHT22;41687;-33.234;-60.334;2024-02-23T12:17:04;21.30;92.40
55771;DHT22;41687;-33.234;-60.334;2024-02-23T12:19:33;21.30;92.60
55771;DHT22;41687;-33.234;-60.334;2024-02-23T12:22:05;21.30;92.40
55771;DHT22;41687;-33.234;-60.334;2024-02-23T12:24:32;21.30;92.10
55771;DHT22;41687;-33.234;-60.334;2024-02-23T12:27:00;21.30;92.30
55771;DHT22;41687;-33.234;-60.334;2024-02-23T12:29:27;21.30;92.50
55771;DHT22;41687;-33.234;-60.334;2024-02-23T12:32:08;21.30;92.40
55771;DHT22;41687;-33.234;-60.334;2024-02-23T12:34:35;21.30;92.80
55771;DHT22;41687;-33.234;-60.334;2024-02-23T12:37:03;21.30;93.10
55771;DHT22;41687;-33.234;-60.334;2024-02-23T12:39:32;21.20;93.40
55771;DHT22;41687;-33.234;-60.334;2024-02-23T12:42:00;21.20;94.20
55771;DHT22;41687;-33.234;-60.334;2024-02-23T12:44:27;21.20;93.60
55771;DHT22;41687;-33.234;-60.334;2024-02-23T12:46:54;21.20;93.80
55771;DHT22;41687;-33.234;-60.334;2024-02-23T12:49:22;21.20;93.70
55771;DHT22;41687;-33.234;-60.334;2024-02-23T12:51:49;21.20;93.60
55771;DHT22;41687;-33.234;-60.334;2024-02-23T12:54:17;21.10;93.90
55771;DHT22;41687;-33.234;-60.334;2024-02-23T12:56:45;21.20;93.70
55771;DHT22;41687;-33.234;-60.334;2024-02-23T12:59:13;21.20;94.20
55771;DHT22;41687;-33.234;-60.334;2024-02-23T13:01:40;21.20;94.70
55771;DHT22;41687;-33.234;-60.334;2024-02-23T13:04:08;21.20;94.80
55771;DHT22;41687;-33.234;-60.334;2024-02-23T13:06:40;21.20;94.80
55771;DHT22;41687;-33.234;-60.334;2024-02-23T13:09:07;21.20;95.20
55771;DHT22;41687;-33.234;-60.334;2024-02-23T13:11:38;21.20;95.90
55771;DHT22;41687;-33.234;-60.334;2024-02-23T13:14:06;21.20;96.30
55771;DHT22;41687;-33.234;-60.334;2024-02-23T13:16:33;21.20;96.70
55771;DHT22;41687;-33.234;-60.334;2024-02-23T13:19:01;21.20;96.30
55771;DHT22;41687;-33.234;-60.334;2024-02-23T13:21:29;21.20;97.10
55771;DHT22;41687;-33.234;-60.334;2024-02-23T13:23:56;21.20;97.10
55771;DHT22;41687;-33.234;-60.334;2024-02-23T13:26:23;21.30;96.70
55771;DHT22;41687;-33.234;-60.334;2024-02-23T13:28:51;21.30;96.50
55771;DHT22;41687;-33.234;-60.334;2024-02-23T13:31:19;21.20;96.40
55771;DHT22;41687;-33.234;-60.334;2024-02-23T13:33:46;21.30;96.30
55771;DHT22;41687;-33.234;-60.334;2024-02-23T13:36:14;21.30;95.20
55771;DHT22;41687;-33.234;-60.334;2024-02-23T13:38:41;21.30;95.20
55771;DHT22;41687;-33.234;-60.334;2024-02-23T13:41:10;21.30;95.30
55771;DHT22;41687;-33.234;-60.334;2024-02-23T13:43:38;21.30;95.00
55771;DHT22;41687;-33.234;-60.334;2024-02-23T13:46:08;21.30;94.70
55771;DHT22;41687;-33.234;-60.334;2024-02-23T13:48:37;21.30;94.40
55771;DHT22;41687;-33.234;-60.334;2024-02-23T13:51:04;21.30;94.50
55771;DHT22;41687;-33.234;-60.334;2024-02-23T13:53:32;21.20;94.70
55771;DHT22;41687;-33.234;-60.334;2024-02-23T13:56:00;21.10;95.00
55771;DHT22;41687;-33.234;-60.334;2024-02-23T13:58:28;21.10;95.80
55771;DHT22;41687;-33.234;-60.334;2024-02-23T14:00:56;21.20;96.00
55771;DHT22;41687;-33.234;-60.334;2024-02-23T14:03:24;21.20;96.20
55771;DHT22;41687;-33.234;-60.334;2024-02-23T14:05:51;21.30;96.40
55771;DHT22;41687;-33.234;-60.334;2024-02-23T14:08:19;21.30;95.80
55771;DHT22;41687;-33.234;-60.334;2024-02-23T14:10:46;21.30;95.80
55771;DHT22;41687;-33.234;-60.334;2024-02-23T14:13:14;21.30;95.60
55771;DHT22;41687;-33.234;-60.334;2024-02-23T14:15:42;21.40;96.30
55771;DHT22;41687;-33.234;-60.334;2024-02-23T14:18:09;21.30;96.30
55771;DHT22;41687;-33.234;-60.334;2024-02-23T14:20:37;21.30;97.10
55771;DHT22;41687;-33.234;-60.334;2024-02-23T14:23:05;21.40;97.60
55771;DHT22;41687;-33.234;-60.334;2024-02-23T14:25:32;21.40;97.40
55771;DHT22;41687;-33.234;-60.334;2024-02-23T14:27:59;21.40;96.90
55771;DHT22;41687;-33.234;-60.334;2024-02-23T14:30:26;21.50;96.60
55771;DHT22;41687;-33.234;-60.334;2024-02-23T14:32:54;21.50;96.80
55771;DHT22;41687;-33.234;-60.334;2024-02-23T14:35:22;21.40;96.50
55771;DHT22;41687;-33.234;-60.334;2024-02-23T14:37:49;21.50;96.80
55771;DHT22;41687;-33.234;-60.334;2024-02-23T14:40:17;21.40;96.90
55771;DHT22;41687;-33.234;-60.334;2024-02-23T14:42:45;21.40;97.30
55771;DHT22;41687;-33.234;-60.334;2024-02-23T14:45:12;21.40;97.80
55771;DHT22;41687;-33.234;-60.334;2024-02-23T14:47:43;21.50;97.50
55771;DHT22;41687;-33.234;-60.334;2024-02-23T14:50:11;21.40;97.50
55771;DHT22;41687;-33.234;-60.334;2024-02-23T14:52:39;21.40;97.30
55771;DHT22;41687;-33.234;-60.334;2024-02-23T14:55:07;21.40;97.00